createdAt,value
2022-11-28T00:03:50.673Z,101436.34
2022-11-28T00:08:53.560Z,101444.09
2022-11-28T00:13:56.051Z,101447.28
2022-11-28T00:18:59.783Z,101452.12
2022-11-28T00:24:02.694Z,101449.78
2022-11-28T00:29:05.814Z,101444.78
2022-11-28T00:34:09.630Z,101448.72
2022-11-28T00:39:11.705Z,101443.22
2022-11-28T00:44:14.369Z,101442.34
2022-11-28T00:49:16.484Z,101446.78
2022-11-28T00:54:18.559Z,101453.28
2022-11-28T00:59:20.662Z,101440.37
2022-11-28T01:04:22.796Z,101463.63
2022-11-28T01:09:25.169Z,101452.53
2022-11-28T01:14:27.514Z,101458.19
2022-11-28T01:19:29.733Z,101449.59
2022-11-28T01:24:32.706Z,101438.34
2022-11-28T01:29:34.784Z,101446.69
2022-11-28T01:34:36.971Z,101446.69
2022-11-28T01:39:39.120Z,101442.94
2022-11-28T01:44:41.517Z,101444.56
2022-11-28T01:49:45.447Z,101416.06
2022-11-28T01:54:54.953Z,101427.34
2022-11-28T02:00:13.509Z,101408.94
2022-11-28T02:05:21.086Z,101402.28
2022-11-28T02:10:28.551Z,101391.00
2022-11-28T02:15:40.161Z,101400.59
2022-11-28T02:21:24.948Z,101396.09
2022-11-28T02:26:29.968Z,101394.91
2022-11-28T02:31:50.645Z,101384.00
2022-11-28T02:37:07.455Z,101389.22
2022-11-28T02:42:23.812Z,101363.97
2022-11-28T02:47:59.257Z,101368.38
2022-11-28T02:53:13.563Z,101369.75
2022-11-28T02:58:15.658Z,101358.66
2022-11-28T03:03:36.717Z,101365.34
2022-11-28T03:08:58.650Z,101372.87
2022-11-28T03:14:09.290Z,101353.38
2022-11-28T03:19:27.632Z,101356.69
2022-11-28T03:24:41.883Z,101358.94
2022-11-28T03:29:48.745Z,101346.50
2022-11-28T03:34:56.619Z,101345.16
2022-11-28T03:40:03.061Z,101343.47
2022-11-28T03:45:10.870Z,101331.91
2022-11-28T03:50:21.814Z,101304.03
2022-11-28T03:55:35.397Z,101296.03
2022-11-28T04:00:49.612Z,101292.25
2022-11-28T04:06:02.739Z,101291.84
2022-11-28T04:11:10.104Z,101271.41
2022-11-28T04:16:36.573Z,101274.69
2022-11-28T04:22:02.442Z,101287.00
2022-11-28T04:27:09.928Z,101294.34
2022-11-28T04:32:13.914Z,101276.59
2022-11-28T04:37:16.829Z,101261.53
2022-11-28T04:42:30.232Z,101275.59
2022-11-28T04:47:32.427Z,101276.59
2022-11-28T04:52:56.014Z,101268.69
2022-11-28T04:58:08.705Z,101267.28
2022-11-28T05:03:11.665Z,101275.62
2022-11-28T05:08:14.235Z,101278.94
2022-11-28T05:13:16.603Z,101280.87
2022-11-28T05:18:18.635Z,101267.75
2022-11-28T05:23:20.729Z,101288.94
2022-11-28T05:28:22.831Z,101267.81
2022-11-28T05:33:24.937Z,101279.28
2022-11-28T05:38:26.998Z,101277.41
2022-11-28T05:43:29.693Z,101299.34
2022-11-28T05:48:31.709Z,101289.25
2022-11-28T05:53:33.832Z,101309.13
2022-11-28T05:58:36.679Z,101309.31
2022-11-28T06:03:38.767Z,101303.41
2022-11-28T06:08:41.334Z,101322.22
2022-11-28T06:13:44.613Z,101309.22
2022-11-28T06:18:46.827Z,101311.97
2022-11-28T06:23:49.532Z,101297.09
2022-11-28T06:28:51.780Z,101311.09
2022-11-28T06:33:54.242Z,101304.19
2022-11-28T06:38:56.615Z,101306.72
2022-11-28T06:43:58.694Z,101295.41
2022-11-28T06:49:00.782Z,101314.69
2022-11-28T06:54:02.914Z,101329.34
2022-11-28T06:59:05.147Z,101317.28
2022-11-28T07:04:07.256Z,101342.34
2022-11-28T07:09:09.314Z,101336.88
2022-11-28T07:14:11.608Z,101334.28
2022-11-28T07:19:13.746Z,101311.94
2022-11-28T07:24:19.638Z,101319.66
2022-11-28T07:29:21.698Z,101310.50
2022-11-28T07:34:23.745Z,101320.12
2022-11-28T07:39:26.177Z,101322.81
2022-11-28T07:49:31.077Z,101308.22
2022-11-28T07:54:33.152Z,101294.78
2022-11-28T07:59:35.319Z,101285.41
2022-11-28T08:04:39.125Z,101291.53
2022-11-28T08:09:43.689Z,101291.00
2022-11-28T08:14:46.005Z,101291.69
2022-11-28T08:19:48.063Z,101297.13
2022-11-28T08:24:50.104Z,101276.69
2022-11-28T08:29:53.981Z,101286.56
2022-11-28T08:34:56.359Z,101296.28
2022-11-28T08:39:58.442Z,101298.47
2022-11-28T08:45:00.496Z,101311.63
2022-11-28T08:50:02.642Z,101298.22
2022-11-28T08:55:05.045Z,101299.62
2022-11-28T09:00:07.863Z,101294.25
2022-11-28T09:05:09.911Z,101309.44
2022-11-28T09:10:12.048Z,101300.34
2022-11-28T09:15:14.594Z,101288.16
2022-11-28T09:20:16.750Z,101301.19
2022-11-28T09:25:18.818Z,101274.72
2022-11-28T09:30:23.935Z,101272.78
2022-11-28T09:35:26.049Z,101275.97
2022-11-28T09:40:42.088Z,101284.81
2022-11-28T09:45:45.933Z,101271.28
2022-11-28T09:50:51.347Z,101266.38
2022-11-28T09:56:02.636Z,101264.88
2022-11-28T10:01:15.341Z,101250.94
2022-11-28T10:06:30.947Z,101238.19
2022-11-28T10:11:43.540Z,101249.50
2022-11-28T10:16:52.432Z,101245.91
2022-11-28T10:21:59.563Z,101244.16
2022-11-28T10:27:04.516Z,101231.00
2022-11-28T10:32:07.519Z,101229.47
2022-11-28T10:37:25.443Z,101213.72
2022-11-28T10:42:45.169Z,101218.56
2022-11-28T10:47:47.168Z,101213.72
2022-11-28T10:53:19.726Z,101213.28
2022-11-28T10:58:27.256Z,101195.22
2022-11-28T11:03:32.798Z,101202.06
2022-11-28T11:08:37.399Z,101204.97
2022-11-28T11:14:01.161Z,101200.34
2022-11-28T11:19:03.374Z,101194.03
2022-11-28T11:24:18.417Z,101189.91
2022-11-28T11:29:35.575Z,101191.38
2022-11-28T11:34:44.874Z,101178.56
2022-11-28T11:39:51.902Z,101180.97
2022-11-28T11:44:54.456Z,101172.03
2022-11-28T11:50:05.396Z,101181.28
2022-11-28T11:55:15.584Z,101181.44
2022-11-28T12:00:18.021Z,101186.13
2022-11-28T12:05:46.371Z,101170.22
2022-11-28T12:11:10.557Z,101165.47
2022-11-28T12:16:30.952Z,101173.59
2022-11-28T12:21:59.179Z,101162.37
2022-11-28T12:27:12.164Z,101161.09
2022-11-28T12:32:38.372Z,101163.44
2022-11-28T12:38:09.804Z,101161.41
2022-11-28T12:43:27.252Z,101160.94
2022-11-28T12:48:51.766Z,101156.66
2022-11-28T12:54:23.030Z,101150.88
2022-11-28T12:59:30.975Z,101147.28
2022-11-28T13:04:51.411Z,101133.22
2022-11-28T13:10:13.727Z,101134.53
2022-11-28T13:15:29.965Z,101124.28
2022-11-28T13:20:56.324Z,101130.91
2022-11-28T13:26:24.444Z,101116.19
2022-11-28T13:31:48.253Z,101111.03
2022-11-28T13:43:07.516Z,101111.66
2022-11-28T13:49:13.850Z,101117.41
2022-11-28T13:54:22.288Z,101121.81
2022-11-28T13:59:25.334Z,101126.22
2022-11-28T14:04:30.382Z,101134.28
2022-11-28T14:09:44.753Z,101128.19
2022-11-28T14:15:07.891Z,101118.53
2022-11-28T14:20:20.448Z,101113.78
2022-11-28T14:25:28.713Z,101106.81
2022-11-28T14:30:35.428Z,101106.19
2022-11-28T14:35:53.035Z,101109.13
2022-11-28T14:40:55.065Z,101102.97
2022-11-28T14:46:19.534Z,101093.44
2022-11-28T14:51:44.359Z,101102.16
2022-11-28T14:56:46.790Z,101109.03
2022-11-28T15:02:08.767Z,101086.59
2022-11-28T15:07:27.241Z,101101.34
2022-11-28T15:12:51.878Z,101104.31
2022-11-28T15:17:55.138Z,101103.06
2022-11-28T15:22:57.528Z,101107.28
2022-11-28T15:28:13.405Z,101108.03
2022-11-28T15:33:16.104Z,101130.09
2022-11-28T15:38:19.044Z,101121.25
2022-11-28T15:43:21.839Z,101100.38
2022-11-28T15:48:39.950Z,101116.69
2022-11-28T15:53:42.531Z,101119.59
2022-11-28T15:58:45.429Z,101111.87
2022-11-28T16:03:49.486Z,101119.53
2022-11-28T16:08:56.263Z,101141.78
2022-11-28T16:14:05.949Z,101125.44
2022-11-28T16:19:26.222Z,101115.31
2022-11-28T16:24:47.452Z,101143.09
2022-11-28T16:29:49.602Z,101146.25
2022-11-28T16:34:55.616Z,101142.41
2022-11-28T16:40:07.062Z,101141.53
2022-11-28T16:45:22.017Z,101131.94
2022-11-28T16:50:24.437Z,101125.03
2022-11-28T16:55:33.673Z,101138.63
2022-11-28T17:00:36.807Z,101136.25
2022-11-28T17:05:38.950Z,101125.53
2022-11-28T17:10:41.166Z,101144.88
2022-11-28T17:15:43.224Z,101130.12
2022-11-28T17:20:45.422Z,101131.06
2022-11-28T17:25:47.552Z,101130.25
2022-11-28T17:30:49.693Z,101151.38
2022-11-28T17:35:53.530Z,101155.00
2022-11-28T17:40:55.644Z,101153.75
2022-11-28T17:45:57.960Z,101150.50
2022-11-28T17:51:02.364Z,101146.13
2022-11-28T17:56:04.601Z,101154.00
2022-11-28T18:01:17.934Z,101130.84
2022-11-28T18:06:21.192Z,101148.25
2022-11-28T18:11:23.345Z,101146.72
2022-11-28T18:16:25.702Z,101154.47
2022-11-28T18:21:28.000Z,101152.19
2022-11-28T18:26:30.083Z,101141.91
2022-11-28T18:31:32.247Z,101133.28
2022-11-28T18:36:36.599Z,101157.97
2022-11-28T18:41:39.919Z,101139.66
2022-11-28T18:46:42.007Z,101165.47
2022-11-28T18:51:44.027Z,101165.28
2022-11-28T18:56:46.120Z,101166.03
2022-11-28T19:01:48.487Z,101170.50
2022-11-28T19:06:50.579Z,101178.38
2022-11-28T19:11:52.687Z,101168.56
2022-11-28T19:16:55.134Z,101167.38
2022-11-28T19:21:57.233Z,101149.50
2022-11-28T19:26:59.334Z,101158.34
2022-11-28T19:32:01.413Z,101161.59
2022-11-28T19:37:03.524Z,101145.69
2022-11-28T19:42:05.682Z,101161.03
2022-11-28T19:47:07.727Z,101164.28
2022-11-28T19:52:09.979Z,101152.66
2022-11-28T19:57:12.057Z,101150.44
2022-11-28T20:02:14.373Z,101168.25
2022-11-28T20:07:16.612Z,101161.63
2022-11-28T20:12:21.193Z,101152.66
2022-11-28T20:17:23.305Z,101151.63
2022-11-28T20:22:25.373Z,101158.06
2022-11-28T20:27:30.436Z,101156.38
2022-11-28T20:32:35.252Z,101157.41
2022-11-28T20:37:39.083Z,101159.28
2022-11-28T20:42:42.020Z,101142.41
2022-11-28T20:47:49.539Z,101142.69
2022-11-28T20:52:53.335Z,101162.31
2022-11-28T20:57:55.831Z,101158.91
2022-11-28T21:02:57.914Z,101148.09
2022-11-28T21:08:00.258Z,101154.06
2022-11-28T21:13:02.694Z,101165.03
2022-11-28T21:18:10.879Z,101150.66
2022-11-28T21:23:15.771Z,101175.66
2022-11-28T21:28:18.298Z,101150.88
2022-11-28T21:33:20.390Z,101158.19
2022-11-28T21:38:24.774Z,101169.31
2022-11-28T21:43:30.053Z,101155.75
2022-11-28T21:48:33.692Z,101163.50
2022-11-28T21:53:35.865Z,101171.22
2022-11-28T21:58:38.736Z,101162.03
2022-11-28T22:03:43.856Z,101165.59
2022-11-28T22:08:46.064Z,101175.22
2022-11-28T22:13:49.061Z,101166.44
2022-11-28T22:18:52.962Z,101167.06
2022-11-28T22:23:55.044Z,101154.09
2022-11-28T22:28:58.774Z,101155.34
2022-11-28T22:34:00.966Z,101174.56
2022-11-28T22:39:03.513Z,101154.28
2022-11-28T22:44:05.704Z,101169.75
2022-11-28T22:49:08.065Z,101159.09
2022-11-28T22:54:12.748Z,101161.59
2022-11-28T22:59:16.205Z,101165.78
2022-11-28T23:04:18.324Z,101162.87
2022-11-28T23:09:20.475Z,101158.91
2022-11-28T23:14:22.503Z,101162.03
2022-11-28T23:19:24.657Z,101159.53
2022-11-28T23:24:26.876Z,101171.66
2022-11-28T23:29:29.016Z,101159.75
2022-11-28T23:34:31.064Z,101172.50
2022-11-28T23:39:33.149Z,101158.72
2022-11-28T23:44:35.174Z,101171.88
2022-11-28T23:49:37.323Z,101171.22
2022-11-28T23:54:39.371Z,101163.72
2022-11-28T23:59:41.487Z,101167.47
